Latest Weather Observations for Kurnell

IDN60901

Issued at 2:02 pm EDT Thursday 23 January 2020 (issued every 10 minutes, with the page automatically refreshed every 10 minutes)

About weather observations | Map of Sydney area stations | Latest observations for Sydney area | Other Formats
Station Details ID: 066043 Name: KURNELL AWS Lat: -34.00 Lon: 151.21 Height: 4.0 m
Data from the previous 72 hours. | See also: Recent months at Kurnell
Date/Time
EDT
Temp
°C
App
Temp
°C
Dew
Point
°C
Rel
Hum
%
Delta-T
°C
Wind Press
QNH
hPa
Press
MSL
hPa
Rain since
9am
mm
Dir  Spd
km/h
Gust
km/h
Spd
kts
Gust
kts
23/02:00pm - - - - - NNW 39 56 21 30 - - -
23/01:32pm - - - - - NNW 35 54 19 29 - - -
23/01:30pm - - - - - NNW 35 46 19 25 - - -
23/01:01pm - - - - - NNW 41 59 22 32 - - -
23/01:00pm - - - - - NNW 43 59 23 32 - - -
23/12:30pm - - - - - NNW 43 54 23 29 - - -
23/12:06pm - - - - - NNW 43 61 23 33 - - -
23/12:00pm - - - - - NNW 46 61 25 33 - - -
23/11:45am - - - - - NNW 30 48 16 26 - - -
23/11:30am - - - - - NNW 30 43 16 23 - - -
23/11:00am - - - - - N 24 32 13 17 - - -
23/10:30am - - - - - N 28 35 15 19 - - -
23/10:00am - - - - - N 30 41 16 22 - - -
23/09:30am - - - - - N 28 44 15 24 - - -
23/09:12am - - - - - N 22 35 12 19 - - -
23/09:00am - - - - - NNW 6 13 3 7 - - -
23/08:30am - - - - - W 7 11 4 6 - - -
23/08:00am - - - - - WNW 4 6 2 3 - - -
23/07:30am - - - - - NW 11 13 6 7 - - -
23/07:00am - - - - - NW 13 17 7 9 - - -
23/06:30am - - - - - NNW 15 19 8 10 - - -
23/06:00am - - - - - NNW 9 11 5 6 - - -
23/05:30am - - - - - NNW 9 11 5 6 - - -
23/05:00am - - - - - N 13 17 7 9 - - -
23/04:30am - - - - - NNE 17 19 9 10 - - -
23/04:00am - - - - - NE 17 20 9 11 - - -
23/03:30am - - - - - NE 20 24 11 13 - - -
23/03:00am - - - - - NE 15 17 8 9 - - -
23/02:30am - - - - - ENE 9 17 5 9 - - -
23/02:00am - - - - - ENE 9 11 5 6 - - -
23/01:30am - - - - - NW 7 9 4 5 - - -
23/01:00am - - - - - N 2 9 1 5 - - -
23/12:30am - - - - - N 9 11 5 6 - - -
23/12:00am - - - - - N 13 17 7 9 - - -
 
Date/Time
EDT
Temp
°C
App
Temp
°C
Dew
Point
°C
Rel
Hum
%
Delta-T
°C
Wind Press
QNH
hPa
Press
MSL
hPa
Rain since
9am
mm
Dir  Spd
km/h
Gust
km/h
Spd
kts
Gust
kts
22/11:30pm - - - - - NNE 17 28 9 15 - - -
22/11:00pm - - - - - NE 20 26 11 14 - - -
22/10:30pm - - - - - NE 17 26 9 14 - - -
22/10:00pm - - - - - NE 26 30 14 16 - - -
22/09:30pm - - - - - NE 32 41 17 22 - - -
22/09:00pm - - - - - NE 35 43 19 23 - - -
22/08:30pm - - - - - NE 33 41 18 22 - - -
22/08:00pm - - - - - NE 33 41 18 22 - - -
22/07:30pm - - - - - NE 33 39 18 21 - - -
22/07:00pm - - - - - NE 32 39 17 21 - - -
22/06:30pm - - - - - NE 33 41 18 22 - - -
22/06:00pm - - - - - ENE 39 48 21 26 - - -
22/05:30pm - - - - - ENE 35 44 19 24 - - -
22/05:00pm - - - - - ENE 35 41 19 22 - - -
22/04:30pm - - - - - ENE 37 44 20 24 - - -
22/04:00pm - - - - - ENE 39 46 21 25 - - -
22/03:30pm - - - - - ENE 37 46 20 25 - - -
22/03:00pm - - - - - ENE 37 43 20 23 - - -
22/02:30pm - - - - - ENE 41 48 22 26 - - -
22/02:00pm - - - - - ENE 33 41 18 22 - - -
22/01:30pm - - - - - NE 32 39 17 21 - - -
22/01:00pm - - - - - ENE 30 35 16 19 - - -
22/12:30pm - - - - - ENE 30 33 16 18 - - -
22/12:00pm - - - - - ENE 28 33 15 18 - - -
22/11:30am - - - - - NE 32 35 17 19 - - -
22/11:00am - - - - - NE 26 30 14 16 - - -
22/10:30am - - - - - ENE 17 22 9 12 - - -
22/10:00am - - - - - CALM 0 0 0 0 - - -
22/09:30am - - - - - W 11 11 6 6 - - -
22/09:00am - - - - - W 7 9 4 5 - - -
22/08:30am - - - - - WNW 9 9 5 5 - - -
22/08:00am - - - - - WNW 9 11 5 6 - - -
22/07:30am - - - - - NNW 9 13 5 7 - - -
22/07:00am - - - - - S 4 7 2 4 - - -
22/06:30am - - - - - CALM 0 0 0 0 - - -
22/06:00am - - - - - CALM 0 0 0 0 - - -
22/05:30am - - - - - CALM 0 0 0 0 - - -
22/05:00am - - - - - CALM 0 0 0 0 - - -
22/04:30am - - - - - CALM 0 0 0 0 - - -
22/04:00am - - - - - CALM 0 0 0 0 - - -
22/03:30am - - - - - CALM 0 0 0 0 - - -
22/03:00am - - - - - CALM 0 0 0 0 - - -
22/02:30am - - - - - S 2 6 1 3 - - -
22/02:00am - - - - - S 4 7 2 4 - - -
22/01:30am - - - - - S 7 7 4 4 - - -
22/01:00am - - - - - S 7 9 4 5 - - -
22/12:30am - - - - - SSE 7 9 4 5 - - -
22/12:00am - - - - - CALM 0 0 0 0 - - -
 
Date/Time
EDT
Temp
°C
App
Temp
°C
Dew
Point
°C
Rel
Hum
%
Delta-T
°C
Wind Press
QNH
hPa
Press
MSL
hPa
Rain since
9am
mm
Dir  Spd
km/h
Gust
km/h
Spd
kts
Gust
kts
21/11:30pm - - - - - CALM 0 0 0 0 - - -
21/11:00pm - - - - - CALM 0 0 0 0 - - -
21/10:30pm - - - - - CALM 0 0 0 0 - - -
21/10:00pm - - - - - SSE 7 9 4 5 - - -
21/09:30pm - - - - - SE 9 11 5 6 - - -
21/09:00pm - - - - - ESE 9 13 5 7 - - -
21/08:30pm - - - - - E 13 15 7 8 - - -
21/08:00pm - - - - - ESE 15 19 8 10 - - -
21/07:30pm - - - - - E 19 22 10 12 - - -
21/07:00pm - - - - - E 19 28 10 15 - - -
21/06:30pm - - - - - E 19 28 10 15 - - -
21/06:00pm - - - - - E 20 28 11 15 - - -
21/05:30pm - - - - - E 19 24 10 13 - - -
21/05:00pm - - - - - SE 22 30 12 16 - - -
21/04:30pm - - - - - SE 28 33 15 18 - - -
21/04:00pm - - - - - SE 24 32 13 17 - - -
21/03:30pm - - - - - SE 30 37 16 20 - - -
21/03:00pm - - - - - SE 28 37 15 20 - - -
21/02:30pm - - - - - SE 30 37 16 20 - - -
21/02:00pm - - - - - SE 26 35 14 19 - - -
21/01:30pm - - - - - SE 24 32 13 17 - - -
21/01:00pm - - - - - SE 24 30 13 16 - - -
21/12:30pm - - - - - S 20 26 11 14 - - -
21/12:00pm - - - - - WSW 22 33 12 18 - - -
21/11:30am - - - - - W 17 28 9 15 - - -
21/11:00am - - - - - W 24 30 13 16 - - -
21/10:30am - - - - - WNW 22 28 12 15 - - -
21/10:00am - - - - - W 22 28 12 15 - - -
21/09:30am - - - - - WSW 19 26 10 14 - - -
21/09:00am - - - - - W 17 26 9 14 - - -
21/08:30am - - - - - W 13 17 7 9 - - -
21/08:00am - - - - - NW 17 19 9 10 - - -
21/07:30am - - - - - NNW 17 19 9 10 - - -
21/07:00am - - - - - WNW 13 17 7 9 - - -
21/06:30am - - - - - WSW 9 11 5 6 - - -
21/06:00am - - - - - NW 11 13 6 7 - - -
21/05:30am - - - - - WNW 11 13 6 7 - - -
21/05:00am - - - - - NW 11 13 6 7 - - -
21/04:30am - - - - - NW 13 13 7 7 - - -
21/04:00am - - - - - NNW 11 13 6 7 - - -
21/03:30am - - - - - N 9 13 5 7 - - -
21/03:00am - - - - - NW 9 11 5 6 - - -
21/02:30am - - - - - W 9 11 5 6 - - -
21/02:00am - - - - - WNW 7 11 4 6 - - -
21/01:30am - - - - - W 9 11 5 6 - - -
21/01:00am - - - - - WNW 11 15 6 8 - - -
21/12:30am - - - - - WNW 11 13 6 7 - - -
21/12:00am - - - - - WNW 11 17 6 9 - - -
 
Date/Time
EDT
Temp
°C
App
Temp
°C
Dew
Point
°C
Rel
Hum
%
Delta-T
°C
Wind Press
QNH
hPa
Press
MSL
hPa
Rain since
9am
mm
Dir  Spd
km/h
Gust
km/h
Spd
kts
Gust
kts
20/11:30pm - - - - - NW 11 13 6 7 - - -
20/11:00pm - - - - - WNW 7 9 4 5 - - -
20/10:30pm - - - - - NNW 7 9 4 5 - - -
20/10:00pm - - - - - CALM 0 0 0 0 - - -
20/09:30pm - - - - - SW 7 9 4 5 - - -
20/09:00pm - - - - - SSE 13 15 7 8 - - -
20/08:30pm - - - - - S 11 13 6 7 - - -
20/08:00pm - - - - - SSE 13 20 7 11 - - -
20/07:30pm - - - - - SSW 22 30 12 16 - - -
20/07:00pm - - - - - S 19 24 10 13 - - -
20/06:30pm - - - - - SSW 22 30 12 16 - - -
20/06:00pm - - - - - SW 22 32 12 17 - - -
20/05:30pm - - - - - W 32 54 17 29 - - -
20/05:28pm - - - - - WSW 33 56 18 30 - - -
20/05:25pm - - - - - WSW 37 56 20 30 - - -
20/05:14pm - - - - - S 33 44 18 24 - - -
20/05:00pm - - - - - SSE 22 32 12 17 - - -
20/04:30pm - - - - - ENE 20 28 11 15 - - -
20/04:00pm - - - - - NNE 15 26 8 14 - - -
20/03:30pm - - - - - NE 33 43 18 23 - - -
20/03:00pm - - - - - ENE 22 33 12 18 - - -
20/02:30pm - - - - - ENE 20 26 11 14 - - -

Latest Capital City Observations: Canberra | Sydney | Melbourne | Brisbane | Adelaide | Perth | Hobart | Darwin

Other formats

Comma delimited format used in spreadsheet applications
http://www.bom.gov.au/fwo/IDN60901/IDN60901.95756.axf

JavaScript Object Notation format (JSON) in row-major order
http://www.bom.gov.au/fwo/IDN60901/IDN60901.95756.json

Data quality

Most of these data are generated automatically and are frequently updated. Quality checks on data are not normally performed. It is possible for incorrect values to appear. Refer to information at About Latest Weather Observations and please check the disclaimer before using these data.